Des Moines (DSM/KDSM)

Map

Destinations

Information

Location
Des Moines, IA
Local Time
05:34 / 5:34 am
GMT Time
10:34 / 10:34 am
Gates
7
No FAA reported delays
METAR KDSM 210954Z 13006KT 10SM FEW070 SCT120 BKN160 OVC200 24/22 A2990 RMK AO2 RAB04E07 SLP113 FRQ LTGICCG DSNT W CB DSNT W MOV E P0000 T02440222
TAF KDSM 210538Z 2106/2206 12005KT P6SM FEW070 SCT110 OVC160 FM210700 11005KT P6SM BKN190 FM211000 13005KT P6SM VCTS SCT030CB BKN110 FM211200 14005KT P6SM BKN110 FM211800 18010KT P6SM SCT210